createdAt,value
2017-10-01T00:00:32.689Z,12.85
2017-10-01T00:01:54.515Z,12.82
2017-10-01T00:03:16.324Z,12.86
2017-10-01T00:04:38.785Z,12.82
2017-10-01T00:06:01.324Z,12.78
2017-10-01T00:07:23.486Z,12.92
2017-10-01T00:08:45.632Z,12.85
2017-10-01T00:10:07.815Z,12.79
2017-10-01T00:11:30.245Z,12.83
2017-10-01T00:12:51.724Z,12.85
2017-10-01T00:14:13.969Z,12.79
2017-10-01T00:15:36.206Z,12.79
2017-10-01T00:16:57.873Z,12.85
2017-10-01T00:18:19.998Z,12.87
2017-10-01T00:19:41.811Z,12.86
2017-10-01T00:21:03.731Z,12.83
2017-10-01T00:22:25.850Z,12.87
2017-10-01T00:23:48.348Z,12.83
2017-10-01T00:25:10.487Z,12.79
2017-10-01T00:26:32.644Z,12.78
2017-10-01T00:27:55.123Z,12.85
2017-10-01T00:29:17.267Z,12.82
2017-10-01T00:30:39.730Z,12.79
2017-10-01T00:32:01.591Z,12.79
2017-10-01T00:33:24.193Z,12.85
2017-10-01T00:34:45.669Z,12.85
2017-10-01T00:36:07.477Z,12.83
2017-10-01T00:37:29.625Z,12.79
2017-10-01T00:38:51.563Z,12.85
2017-10-01T00:40:13.397Z,12.79
2017-10-01T00:41:35.652Z,12.87
2017-10-01T00:42:57.611Z,12.9
2017-10-01T00:44:20.093Z,12.89
2017-10-01T00:45:42.591Z,12.82
2017-10-01T00:47:04.083Z,12.85
2017-10-01T00:48:26.234Z,12.85
2017-10-01T00:49:49.043Z,12.85
2017-10-01T00:51:10.925Z,12.85
2017-10-01T00:52:32.849Z,12.86
2017-10-01T00:53:54.350Z,12.82
2017-10-01T00:55:16.471Z,12.83
2017-10-01T00:56:39.077Z,12.79
2017-10-01T00:58:01.536Z,12.82
2017-10-01T00:59:23.092Z,12.85
2017-10-01T01:00:45.577Z,12.79
2017-10-01T01:02:07.390Z,12.78
2017-10-01T01:03:28.883Z,12.87
2017-10-01T01:04:50.714Z,12.82
2017-10-01T01:06:13.632Z,12.79
2017-10-01T01:07:35.762Z,12.85
2017-10-01T01:08:57.274Z,12.79
2017-10-01T01:10:19.415Z,12.78
2017-10-01T01:11:41.531Z,12.78
2017-10-01T01:13:03.338Z,12.72
2017-10-01T01:14:25.463Z,12.79
2017-10-01T01:15:47.908Z,12.68
2017-10-01T01:17:09.709Z,12.59
2017-10-01T01:18:31.851Z,12.52
2017-10-01T01:19:53.687Z,12.52
2017-10-01T01:21:15.823Z,12.45
2017-10-01T01:22:38.320Z,12.45
2017-10-01T01:24:00.151Z,12.34
2017-10-01T01:25:21.981Z,12.24
2017-10-01T01:26:43.823Z,12.24
2017-10-01T01:28:05.952Z,12.19
2017-10-01T01:29:28.111Z,12.12
2017-10-01T01:30:49.929Z,12.04
2017-10-01T01:32:12.376Z,12.04
2017-10-01T01:33:34.943Z,11.86
2017-10-01T01:34:57.091Z,11.76
2017-10-01T01:36:18.996Z,11.72
2017-10-01T01:37:40.496Z,11.65
2017-10-01T01:39:02.658Z,11.65
2017-10-01T01:40:24.809Z,11.65
2017-10-01T01:41:46.943Z,11.54
2017-10-01T01:43:08.793Z,11.54
2017-10-01T01:44:30.933Z,11.49
2017-10-01T01:45:53.054Z,11.43
2017-10-01T01:47:14.885Z,11.33
2017-10-01T01:48:36.369Z,11.36
2017-10-01T01:49:58.175Z,11.27
2017-10-01T01:51:20.602Z,11.37
2017-10-01T01:52:42.563Z,11.25
2017-10-01T01:54:04.703Z,11.28
2017-10-01T01:55:26.875Z,11.21
2017-10-01T01:56:49.332Z,11.17
2017-10-01T01:58:11.462Z,11.14
2017-10-01T01:59:33.614Z,11.14
2017-10-01T02:00:55.533Z,11.09
2017-10-01T02:02:17.666Z,11.03
2017-10-01T02:03:39.530Z,11.02
2017-10-01T02:05:01.469Z,10.92
2017-10-01T02:06:24.022Z,11
2017-10-01T02:07:46.137Z,10.96
2017-10-01T02:09:07.958Z,10.86
2017-10-01T02:10:30.105Z,10.88
2017-10-01T02:11:52.843Z,10.91
2017-10-01T02:13:15.413Z,10.84
2017-10-01T02:14:37.223Z,10.85
2017-10-01T02:15:59.104Z,10.86
2017-10-01T02:17:21.664Z,10.85
2017-10-01T02:18:43.791Z,10.92
2017-10-01T02:20:06.063Z,10.86
2017-10-01T02:21:28.498Z,10.82
2017-10-01T02:22:50.323Z,10.89
2017-10-01T02:24:12.134Z,10.78
2017-10-01T02:25:34.662Z,10.73
2017-10-01T02:26:56.452Z,10.7
2017-10-01T02:28:19.329Z,10.63
2017-10-01T02:29:40.818Z,10.64
2017-10-01T02:31:02.299Z,10.64
2017-10-01T02:32:25.096Z,10.66
2017-10-01T02:33:46.253Z,10.56
2017-10-01T02:35:07.732Z,10.59
2017-10-01T02:36:29.854Z,10.53
2017-10-01T02:37:52.444Z,10.51
2017-10-01T02:39:14.587Z,10.44
2017-10-01T02:40:36.063Z,10.38
2017-10-01T02:41:57.878Z,10.4
2017-10-01T02:43:20.014Z,10.41
2017-10-01T02:44:41.882Z,10.33
2017-10-01T02:46:03.710Z,10.38
2017-10-01T02:47:24.553Z,10.25
2017-10-01T02:48:46.364Z,10.25
2017-10-01T02:50:09.183Z,10.17
2017-10-01T02:51:30.670Z,10.22
2017-10-01T02:52:52.794Z,10.08
2017-10-01T02:54:14.360Z,10.05
2017-10-01T02:55:35.828Z,10.04
2017-10-01T02:56:57.734Z,9.97
2017-10-01T02:58:19.222Z,9.97
2017-10-01T02:59:41.044Z,9.89
2017-10-01T03:01:02.904Z,9.89
2017-10-01T03:02:25.033Z,9.84
2017-10-01T03:03:47.086Z,9.76
2017-10-01T03:05:09.223Z,9.81
2017-10-01T03:06:30.769Z,9.81
2017-10-01T03:07:52.574Z,9.78
2017-10-01T03:09:14.373Z,9.79
2017-10-01T03:10:36.183Z,9.72
2017-10-01T03:11:57.999Z,9.83
2017-10-01T03:13:19.805Z,9.78
2017-10-01T03:14:41.355Z,9.71
2017-10-01T03:16:03.483Z,9.68
2017-10-01T03:17:25.974Z,9.68
2017-10-01T03:18:48.142Z,9.71
2017-10-01T03:20:09.959Z,9.69
2017-10-01T03:21:31.777Z,9.66
2017-10-01T03:22:54.213Z,9.61
2017-10-01T03:24:16.703Z,9.58
2017-10-01T03:25:38.544Z,9.66
2017-10-01T03:27:00.374Z,9.6
2017-10-01T03:28:22.508Z,9.54
2017-10-01T03:29:44.333Z,9.65
2017-10-01T03:31:05.933Z,9.58
2017-10-01T03:32:27.098Z,9.58
2017-10-01T03:33:49.892Z,9.58
2017-10-01T03:35:11.382Z,9.61
2017-10-01T03:36:33.282Z,9.58
2017-10-01T03:37:54.813Z,9.64
2017-10-01T03:39:17.244Z,9.58
2017-10-01T03:40:39.351Z,9.64
2017-10-01T03:42:01.779Z,9.58
2017-10-01T03:43:24.015Z,9.54
2017-10-01T03:44:46.122Z,9.6
2017-10-01T03:46:07.616Z,9.57
2017-10-01T03:47:29.424Z,9.56
2017-10-01T03:48:51.866Z,9.56
2017-10-01T03:50:13.366Z,9.51
2017-10-01T03:51:35.173Z,9.5
2017-10-01T03:52:57.621Z,9.5
2017-10-01T03:54:19.413Z,9.39
2017-10-01T03:55:41.918Z,9.42
2017-10-01T03:57:03.700Z,9.38
2017-10-01T03:58:25.533Z,9.32
2017-10-01T03:59:47.654Z,9.28
2017-10-01T04:01:09.454Z,9.24
2017-10-01T04:02:31.590Z,9.31
2017-10-01T04:03:53.405Z,9.29
2017-10-01T04:05:15.866Z,9.29
2017-10-01T04:06:37.362Z,9.35
2017-10-01T04:07:59.514Z,9.29
2017-10-01T04:09:21.648Z,9.35
2017-10-01T04:10:43.139Z,9.31
2017-10-01T04:12:05.585Z,9.29
2017-10-01T04:13:27.713Z,9.32
2017-10-01T04:14:49.215Z,9.31
2017-10-01T04:16:10.385Z,9.24
2017-10-01T04:17:32.553Z,9.28
2017-10-01T04:18:54.424Z,9.21
2017-10-01T04:20:16.872Z,9.26
2017-10-01T04:21:39.143Z,9.21
2017-10-01T04:23:00.624Z,9.17
2017-10-01T04:24:22.142Z,9.26
2017-10-01T04:25:44.602Z,9.23
2017-10-01T04:27:06.101Z,9.1
2017-10-01T04:28:28.524Z,9.14
2017-10-01T04:29:50.022Z,9.13
2017-10-01T04:31:11.886Z,9.13
2017-10-01T04:32:34.012Z,9.11
2017-10-01T04:33:56.510Z,9.13
2017-10-01T04:35:17.999Z,9.1
2017-10-01T04:36:39.800Z,9.08
2017-10-01T04:38:02.251Z,8.98
2017-10-01T04:39:24.734Z,9.02
2017-10-01T04:40:46.612Z,8.96
2017-10-01T04:42:09.064Z,9.04
2017-10-01T04:43:30.883Z,8.99
2017-10-01T04:44:53.211Z,8.99
2017-10-01T04:46:14.701Z,9.01
2017-10-01T04:47:35.875Z,8.89
2017-10-01T04:48:58.301Z,9.02
2017-10-01T04:50:20.779Z,9.02
2017-10-01T04:51:42.607Z,8.98
2017-10-01T04:53:04.733Z,9.01
2017-10-01T04:54:26.532Z,8.95
2017-10-01T04:55:49.033Z,8.94
2017-10-01T04:57:11.578Z,8.92
2017-10-01T04:58:33.713Z,8.98
2017-10-01T04:59:55.533Z,8.99
2017-10-01T05:01:17.630Z,8.84
2017-10-01T05:02:39.433Z,8.84
2017-10-01T05:04:01.241Z,8.84
2017-10-01T05:05:23.529Z,8.77
2017-10-01T05:06:45.734Z,8.76
2017-10-01T05:08:07.538Z,8.73
2017-10-01T05:09:29.343Z,8.76
2017-10-01T05:10:51.802Z,8.77
2017-10-01T05:12:13.284Z,8.68
2017-10-01T05:13:35.413Z,8.73
2017-10-01T05:14:57.202Z,8.74
2017-10-01T05:16:19.012Z,8.71
2017-10-01T05:17:41.464Z,8.76
2017-10-01T05:19:03.614Z,8.73
2017-10-01T05:20:26.054Z,8.73
2017-10-01T05:21:48.208Z,8.84
2017-10-01T05:23:10.045Z,8.81
2017-10-01T05:24:32.503Z,8.87
2017-10-01T05:25:54.652Z,8.81
2017-10-01T05:27:17.115Z,8.89
2017-10-01T05:28:39.035Z,8.95
2017-10-01T05:30:00.852Z,8.98
2017-10-01T05:31:22.763Z,8.96
2017-10-01T05:32:44.623Z,8.92
2017-10-01T05:34:06.423Z,9.05
2017-10-01T05:35:28.588Z,9.05
2017-10-01T05:36:50.086Z,9.01
2017-10-01T05:38:12.229Z,9.04
2017-10-01T05:39:34.763Z,9.05
2017-10-01T05:40:56.562Z,9.02
2017-10-01T05:42:18.692Z,9.04
2017-10-01T05:43:40.914Z,9.1
2017-10-01T05:45:03.045Z,9.08
2017-10-01T05:46:24.517Z,9.13
2017-10-01T05:47:46.653Z,9.14
2017-10-01T05:49:08.486Z,9.15
2017-10-01T05:50:30.622Z,9.18
2017-10-01T05:51:52.764Z,9.15
2017-10-01T05:53:14.951Z,9.14
2017-10-01T05:54:36.773Z,9.26
2017-10-01T05:55:58.893Z,9.29
2017-10-01T05:57:21.379Z,9.48
2017-10-01T05:58:42.938Z,9.61
2017-10-01T06:00:04.442Z,9.6
2017-10-01T06:01:26.585Z,9.65
2017-10-01T06:02:49.245Z,9.66
2017-10-01T06:04:11.423Z,9.66
2017-10-01T06:05:33.250Z,9.81
2017-10-01T06:06:56.054Z,9.93
2017-10-01T06:08:18.610Z,10.36
2017-10-01T06:09:40.733Z,10.94
2017-10-01T06:11:02.264Z,11.37
2017-10-01T06:12:24.155Z,11.85
2017-10-01T06:13:46.281Z,12.23
2017-10-01T06:15:07.797Z,12.41
2017-10-01T06:16:29.714Z,12.7
2017-10-01T06:17:52.205Z,13.03
2017-10-01T06:19:14.350Z,13.33
2017-10-01T06:20:36.507Z,13.6
2017-10-01T06:21:59.014Z,14.1
2017-10-01T06:23:21.500Z,14.46
2017-10-01T06:24:43.974Z,14.8
2017-10-01T06:26:05.812Z,15.02
2017-10-01T06:27:27.992Z,15.29
2017-10-01T06:28:50.388Z,15.59
2017-10-01T06:30:12.844Z,15.75
2017-10-01T06:31:34.346Z,16.09
2017-10-01T06:32:56.163Z,16.43
2017-10-01T06:34:18.003Z,16.64
2017-10-01T06:35:40.168Z,16.83
2017-10-01T06:37:01.984Z,17
2017-10-01T06:38:24.140Z,17.36
2017-10-01T06:39:46.316Z,17.55
2017-10-01T06:41:08.474Z,17.79
2017-10-01T06:42:30.415Z,18.05
2017-10-01T06:43:52.863Z,18.18
2017-10-01T06:45:15.279Z,18.37
2017-10-01T06:46:37.524Z,18.62
2017-10-01T06:47:59.408Z,18.85
2017-10-01T06:49:21.560Z,18.78
2017-10-01T06:50:44.015Z,18.9
2017-10-01T06:52:05.831Z,19.16
2017-10-01T06:53:27.026Z,19.29
2017-10-01T06:54:49.243Z,19.31
2017-10-01T06:56:11.386Z,19.29
2017-10-01T06:57:33.562Z,19.4
2017-10-01T06:58:55.084Z,19.36
2017-10-01T07:00:16.899Z,19.41
2017-10-01T07:01:39.680Z,19.61
2017-10-01T07:03:01.488Z,19.56
2017-10-01T07:04:23.304Z,19.71
2017-10-01T07:05:45.470Z,19.91
2017-10-01T07:07:07.542Z,19.96
2017-10-01T07:08:29.154Z,19.99
2017-10-01T07:09:51.329Z,20.06
2017-10-01T07:11:13.456Z,20.17
2017-10-01T07:12:36.086Z,20.28
2017-10-01T07:13:58.345Z,20.39
2017-10-01T07:15:20.184Z,20.33
2017-10-01T07:16:42.639Z,20.41
2017-10-01T07:18:04.493Z,20.21
2017-10-01T07:19:26.339Z,20.02
2017-10-01T07:20:48.815Z,19.14
2017-10-01T07:22:10.643Z,18.3
2017-10-01T07:23:33.303Z,17.52
2017-10-01T07:24:54.793Z,16.81
2017-10-01T07:26:16.641Z,16.25
2017-10-01T07:27:38.804Z,15.69
2017-10-01T07:29:01.532Z,15.44
2017-10-01T07:30:23.999Z,15.13
2017-10-01T07:31:46.292Z,14.95
2017-10-01T07:33:08.774Z,14.62
2017-10-01T07:34:30.636Z,14.39
2017-10-01T07:35:52.464Z,14.25
2017-10-01T07:37:14.983Z,14.24
2017-10-01T07:38:36.544Z,14.12
2017-10-01T07:39:59.332Z,14.04
2017-10-01T07:41:21.487Z,14.02
2017-10-01T07:42:43.304Z,13.92
2017-10-01T07:44:05.547Z,13.96
2017-10-01T07:45:28.073Z,14.04
2017-10-01T07:46:50.228Z,14.02
2017-10-01T07:48:12.162Z,14.06
2017-10-01T07:49:34.676Z,14.04
2017-10-01T07:50:57.286Z,13.97
2017-10-01T07:52:19.424Z,14.06
2017-10-01T07:53:41.573Z,14.12
2017-10-01T07:55:03.442Z,14.1
2017-10-01T07:56:25.867Z,14.04
2017-10-01T07:57:48.013Z,14.07
2017-10-01T07:59:09.851Z,14.17
2017-10-01T08:00:31.349Z,14.17
2017-10-01T08:01:53.489Z,14.04
2017-10-01T08:03:15.659Z,14.02
2017-10-01T08:04:38.132Z,14.07
2017-10-01T08:05:59.947Z,14.17
2017-10-01T08:07:22.773Z,14.2
2017-10-01T08:08:44.604Z,14.21
2017-10-01T08:10:06.744Z,14.2
2017-10-01T08:11:28.234Z,14.18
2017-10-01T08:12:51.069Z,14.25
2017-10-01T08:14:13.542Z,14.36
2017-10-01T08:15:35.196Z,14.24
2017-10-01T08:16:57.075Z,14.4
2017-10-01T08:18:19.593Z,14.37
2017-10-01T08:19:41.425Z,14.35
2017-10-01T08:21:03.565Z,14.43
2017-10-01T08:22:25.405Z,14.37
2017-10-01T08:23:47.604Z,14.4
2017-10-01T08:25:09.734Z,14.51
2017-10-01T08:26:32.193Z,14.55
2017-10-01T08:27:53.692Z,14.69
2017-10-01T08:29:15.843Z,14.68
2017-10-01T08:30:38.004Z,14.68
2017-10-01T08:32:00.190Z,14.8
2017-10-01T08:33:22.356Z,14.86
2017-10-01T08:34:44.493Z,14.91
2017-10-01T08:36:06.657Z,14.92
2017-10-01T08:37:28.560Z,15.01
2017-10-01T08:38:50.777Z,14.89
2017-10-01T08:40:13.413Z,15.01
2017-10-01T08:41:35.883Z,15.01
2017-10-01T08:42:58.349Z,14.98
2017-10-01T08:44:20.606Z,15.09
2017-10-01T08:45:43.094Z,15.07
2017-10-01T08:47:05.308Z,15.09
2017-10-01T08:48:27.603Z,15.14
2017-10-01T08:49:50.065Z,15.21
2017-10-01T08:51:12.625Z,15.11
2017-10-01T08:52:34.153Z,15.14
2017-10-01T08:53:56.621Z,15.23
2017-10-01T08:55:18.124Z,15.14
2017-10-01T08:56:40.247Z,15.31
2017-10-01T08:58:02.392Z,15.27
2017-10-01T08:59:23.892Z,15.29
2017-10-01T09:00:45.486Z,15.5
2017-10-01T09:02:07.960Z,15.34
2017-10-01T09:03:30.103Z,15.36
2017-10-01T09:04:52.584Z,15.39
2017-10-01T09:06:15.063Z,15.41
2017-10-01T09:07:36.895Z,15.6
2017-10-01T09:08:58.712Z,15.46
2017-10-01T09:10:20.214Z,15.53
2017-10-01T09:11:42.035Z,15.62
2017-10-01T09:13:04.564Z,15.67
2017-10-01T09:14:26.724Z,15.59
2017-10-01T09:15:49.199Z,15.59
2017-10-01T09:17:11.372Z,15.56
2017-10-01T09:18:33.634Z,15.51
2017-10-01T09:19:55.135Z,15.65
2017-10-01T09:21:17.627Z,15.51
2017-10-01T09:22:39.781Z,15.57
2017-10-01T09:24:01.592Z,15.53
2017-10-01T09:25:23.510Z,15.65
2017-10-01T09:26:46.080Z,15.65
2017-10-01T09:28:08.237Z,15.71
2017-10-01T09:29:30.406Z,15.76
2017-10-01T09:30:52.564Z,15.68
2017-10-01T09:32:14.404Z,15.71
2017-10-01T09:33:36.543Z,15.65
2017-10-01T09:34:58.376Z,15.76
2017-10-01T09:36:20.584Z,15.8
2017-10-01T09:37:43.072Z,15.86
2017-10-01T09:39:05.225Z,15.72
2017-10-01T09:40:27.393Z,15.78
2017-10-01T09:41:49.884Z,15.83
2017-10-01T09:43:12.362Z,15.96
2017-10-01T09:44:34.513Z,16.04
2017-10-01T09:45:56.845Z,15.94
2017-10-01T09:47:19.330Z,15.96
2017-10-01T09:48:41.823Z,16.07
2017-10-01T09:50:03.977Z,16.05
2017-10-01T09:51:26.466Z,16.14
2017-10-01T09:52:48.675Z,16.27
2017-10-01T09:54:10.879Z,16.42
2017-10-01T09:55:33.075Z,16.49
2017-10-01T09:56:55.387Z,16.45
2017-10-01T09:58:17.596Z,16.46
2017-10-01T09:59:40.084Z,16.39
2017-10-01T10:01:01.920Z,16.43
2017-10-01T10:02:24.515Z,16.5
2017-10-01T10:03:46.665Z,16.5
2017-10-01T10:05:08.864Z,16.66
2017-10-01T10:06:31.012Z,16.61
2017-10-01T10:07:52.852Z,16.57
2017-10-01T10:09:15.013Z,16.57
2017-10-01T10:10:36.509Z,16.52
2017-10-01T10:11:59.005Z,16.56
2017-10-01T10:13:21.566Z,16.53
2017-10-01T10:14:44.113Z,16.53
2017-10-01T10:16:06.246Z,16.52
2017-10-01T10:17:28.392Z,16.53
2017-10-01T10:18:50.902Z,16.52
2017-10-01T10:20:12.732Z,16.41
2017-10-01T10:21:35.203Z,16.49
2017-10-01T10:22:57.670Z,16.57
2017-10-01T10:24:19.864Z,16.52
2017-10-01T10:25:42.014Z,16.6
2017-10-01T10:27:04.507Z,16.49
2017-10-01T10:28:26.327Z,16.53
2017-10-01T10:29:49.158Z,16.5
2017-10-01T10:31:10.985Z,16.61
2017-10-01T10:32:33.465Z,16.53
2017-10-01T10:33:55.991Z,16.73
2017-10-01T10:35:18.469Z,16.75
2017-10-01T10:36:40.943Z,16.64
2017-10-01T10:38:03.453Z,16.7
2017-10-01T10:39:25.624Z,16.71
2017-10-01T10:40:48.122Z,16.67
2017-10-01T10:42:10.593Z,16.52
2017-10-01T10:43:33.055Z,16.46
2017-10-01T10:44:55.582Z,16.58
2017-10-01T10:46:17.773Z,16.56
2017-10-01T10:47:39.954Z,16.5
2017-10-01T10:49:02.453Z,16.63
2017-10-01T10:50:24.634Z,16.68
2017-10-01T10:51:47.134Z,16.63
2017-10-01T10:53:09.341Z,16.63
2017-10-01T10:54:31.796Z,16.68
2017-10-01T10:55:54.303Z,16.68
2017-10-01T10:57:16.542Z,16.85
2017-10-01T10:58:38.713Z,16.83
2017-10-01T11:00:00.859Z,16.82
2017-10-01T11:01:23.332Z,16.96
2017-10-01T11:02:45.923Z,16.86
2017-10-01T11:04:07.758Z,16.91
2017-10-01T11:05:29.972Z,16.82
2017-10-01T11:06:52.123Z,16.94
2017-10-01T11:08:13.316Z,16.83
2017-10-01T11:09:35.505Z,16.94
2017-10-01T11:10:58.013Z,16.98
2017-10-01T11:12:20.494Z,16.97
2017-10-01T11:13:42.964Z,16.94
2017-10-01T11:15:05.495Z,17
2017-10-01T11:16:27.967Z,17
2017-10-01T11:17:50.470Z,16.97
2017-10-01T11:19:12.645Z,16.81
2017-10-01T11:20:35.154Z,16.83
2017-10-01T11:21:57.664Z,16.97
2017-10-01T11:23:20.162Z,16.98
2017-10-01T11:24:42.316Z,16.98
2017-10-01T11:26:04.466Z,16.91
2017-10-01T11:27:26.681Z,16.93
2017-10-01T11:28:49.181Z,16.93
2017-10-01T11:30:11.515Z,17.01
2017-10-01T11:31:33.784Z,16.96
2017-10-01T11:32:56.284Z,16.88
2017-10-01T11:34:18.753Z,17.04
2017-10-01T11:35:41.577Z,17.08
2017-10-01T11:37:03.752Z,17.11
2017-10-01T11:38:25.886Z,17.14
2017-10-01T11:39:47.046Z,17.25
2017-10-01T11:41:08.903Z,17.31
2017-10-01T11:42:31.392Z,17.49
2017-10-01T11:43:53.284Z,17.51
2017-10-01T11:45:15.117Z,17.46
2017-10-01T11:46:37.751Z,17.51
2017-10-01T11:47:59.912Z,17.55
2017-10-01T11:49:22.227Z,17.62
2017-10-01T11:50:44.738Z,17.74
2017-10-01T11:52:06.616Z,17.62
2017-10-01T11:53:28.790Z,17.54
2017-10-01T11:54:51.419Z,17.43
2017-10-01T11:56:13.602Z,17.55
2017-10-01T11:57:36.148Z,17.54
2017-10-01T11:58:57.981Z,17.74
2017-10-01T12:00:20.515Z,17.71
2017-10-01T12:01:42.692Z,17.77
2017-10-01T12:03:05.508Z,17.9
2017-10-01T12:04:27.982Z,18.11
2017-10-01T12:05:50.634Z,18.1
2017-10-01T12:07:12.780Z,18.11
2017-10-01T12:08:35.293Z,18.18
2017-10-01T12:09:57.484Z,18.15
2017-10-01T12:11:19.674Z,18.2
2017-10-01T12:12:42.172Z,18.37
2017-10-01T12:14:04.424Z,18.58
2017-10-01T12:15:26.597Z,18.76
2017-10-01T12:16:49.068Z,19.1
2017-10-01T12:18:10.983Z,19.31
2017-10-01T12:19:33.154Z,19.65
2017-10-01T12:20:55.687Z,19.59
2017-10-01T12:22:18.156Z,19.51
2017-10-01T12:23:40.320Z,19.74
2017-10-01T12:25:02.500Z,19.87
2017-10-01T12:26:24.695Z,19.94
2017-10-01T12:27:46.536Z,19.83
2017-10-01T12:29:08.684Z,19.73
2017-10-01T12:30:31.524Z,19.76
2017-10-01T12:31:53.379Z,19.54
2017-10-01T12:33:15.860Z,19.37
2017-10-01T12:34:38.034Z,19.26
2017-10-01T12:36:00.870Z,19.19
2017-10-01T12:37:22.473Z,19.14
2017-10-01T12:38:44.984Z,19.31
2017-10-01T12:40:07.282Z,19.47
2017-10-01T12:41:30.244Z,19.41
2017-10-01T12:42:52.713Z,19.41
2017-10-01T12:44:14.885Z,19.36
2017-10-01T12:45:37.354Z,19.4
2017-10-01T12:46:59.490Z,19.36
2017-10-01T12:48:21.749Z,19.25
2017-10-01T12:49:44.211Z,19.29
2017-10-01T12:51:06.687Z,19.06
2017-10-01T12:52:28.860Z,19.1
2017-10-01T12:53:51.059Z,19.08
2017-10-01T12:55:13.543Z,19.21
2017-10-01T12:56:35.712Z,19.06
2017-10-01T12:57:58.215Z,19.11
2017-10-01T12:59:20.907Z,19.08
2017-10-01T13:00:42.790Z,19.06
2017-10-01T13:02:04.952Z,19.23
2017-10-01T13:03:27.522Z,19.28
2017-10-01T13:04:49.997Z,19.1
2017-10-01T13:06:12.485Z,18.8
2017-10-01T13:07:34.984Z,18.78
2017-10-01T13:08:57.803Z,18.82
2017-10-01T13:10:20.274Z,18.73
2017-10-01T13:11:42.823Z,18.67
2017-10-01T13:13:05.366Z,18.69
2017-10-01T13:14:27.573Z,18.6
2017-10-01T13:15:49.428Z,18.51
2017-10-01T13:17:11.588Z,18.33
2017-10-01T13:18:33.823Z,18.35
2017-10-01T13:19:56.004Z,18.25
2017-10-01T13:21:17.823Z,18.35
2017-10-01T13:22:40.332Z,18.33
2017-10-01T13:24:02.194Z,18.27
2017-10-01T13:25:25.272Z,18.3
2017-10-01T13:26:47.751Z,18.32
2017-10-01T13:28:09.919Z,18.25
2017-10-01T13:29:32.078Z,18.21
2017-10-01T13:30:54.242Z,18.17
2017-10-01T13:32:16.077Z,18.29
2017-10-01T13:33:38.562Z,18.25
2017-10-01T13:35:00.383Z,18.25
2017-10-01T13:36:23.241Z,18.27
2017-10-01T13:37:45.409Z,18.26
2017-10-01T13:39:07.553Z,18.11
2017-10-01T13:40:29.682Z,18.08
2017-10-01T13:41:51.579Z,18.1
2017-10-01T13:43:14.081Z,18.15
2017-10-01T13:44:35.907Z,18.14
2017-10-01T13:45:58.111Z,18.15
2017-10-01T13:47:20.244Z,18.05
2017-10-01T13:48:42.726Z,18.07
2017-10-01T13:50:05.201Z,18.05
2017-10-01T13:51:27.061Z,18.02
2017-10-01T13:52:49.262Z,18.08
2017-10-01T13:54:11.429Z,18.07
2017-10-01T13:55:33.347Z,18.1
2017-10-01T13:56:55.185Z,18.17
2017-10-01T13:58:17.073Z,18.11
2017-10-01T13:59:39.202Z,18.07
2017-10-01T14:01:01.725Z,18.08
2017-10-01T14:02:23.867Z,18.03
2017-10-01T14:03:46.062Z,18.17
2017-10-01T14:05:08.562Z,18.07
2017-10-01T14:06:30.428Z,18.17
2017-10-01T14:07:52.903Z,18.23
2017-10-01T14:09:15.945Z,18.25
2017-10-01T14:10:38.116Z,18.26
2017-10-01T14:12:00.580Z,18.23
2017-10-01T14:13:22.403Z,18.26
2017-10-01T14:14:44.416Z,18.26
2017-10-01T14:16:06.048Z,18.12
2017-10-01T14:17:27.688Z,18.05
2017-10-01T14:18:48.697Z,18.05
2017-10-01T14:20:10.361Z,17.92
2017-10-01T14:21:32.004Z,17.92
2017-10-01T14:22:53.960Z,17.97
2017-10-01T14:24:15.623Z,18.05
2017-10-01T14:25:37.582Z,18.03
2017-10-01T14:26:59.562Z,18.05
2017-10-01T14:28:21.524Z,17.95
2017-10-01T14:29:43.173Z,18.05
2017-10-01T14:31:05.615Z,18.07
2017-10-01T14:32:26.924Z,18.05
2017-10-01T14:33:48.555Z,18
2017-10-01T14:35:10.532Z,18
2017-10-01T14:36:32.521Z,18.02
2017-10-01T14:37:54.181Z,18.08
2017-10-01T14:39:15.884Z,18.12
2017-10-01T14:40:37.892Z,18.05
2017-10-01T14:41:59.893Z,17.95
2017-10-01T14:43:21.846Z,17.96
2017-10-01T14:44:43.842Z,17.92
2017-10-01T14:46:05.485Z,17.92
2017-10-01T14:47:27.155Z,17.92
2017-10-01T14:48:48.786Z,17.84
2017-10-01T14:50:10.779Z,17.86
2017-10-01T14:51:32.443Z,17.82
2017-10-01T14:52:54.442Z,17.84
2017-10-01T14:54:16.402Z,17.75
2017-10-01T14:55:38.065Z,17.66
2017-10-01T14:57:00.024Z,17.68
2017-10-01T14:58:21.997Z,17.66
2017-10-01T14:59:44.183Z,17.62
2017-10-01T15:01:06.403Z,17.7
2017-10-01T15:02:28.572Z,17.59
2017-10-01T15:03:50.382Z,17.55
2017-10-01T15:05:12.534Z,17.52
2017-10-01T15:06:35.032Z,17.56
2017-10-01T15:07:57.203Z,17.54
2017-10-01T15:09:19.413Z,17.68
2017-10-01T15:10:41.591Z,17.52
2017-10-01T15:12:03.433Z,17.64
2017-10-01T15:13:25.595Z,17.66
2017-10-01T15:14:47.790Z,17.59
2017-10-01T15:16:10.337Z,17.55
2017-10-01T15:17:32.473Z,17.49
2017-10-01T15:18:54.965Z,17.46
2017-10-01T15:20:16.582Z,17.38
2017-10-01T15:21:38.425Z,17.44
2017-10-01T15:23:00.932Z,17.46
2017-10-01T15:24:23.403Z,17.52
2017-10-01T15:25:45.994Z,17.38
2017-10-01T15:27:08.456Z,17.3
2017-10-01T15:28:31.002Z,17.43
2017-10-01T15:29:52.844Z,17.34
2017-10-01T15:31:15.423Z,17.37
2017-10-01T15:32:37.382Z,17.3
2017-10-01T15:33:59.233Z,17.36
2017-10-01T15:35:21.070Z,17.36
2017-10-01T15:36:43.571Z,17.33
2017-10-01T15:38:05.405Z,17.26
2017-10-01T15:39:27.248Z,17.23
2017-10-01T15:40:49.403Z,17.28
2017-10-01T15:42:12.311Z,17.26
2017-10-01T15:43:34.166Z,17.23
2017-10-01T15:44:56.648Z,17.18
2017-10-01T15:46:18.521Z,17.21
2017-10-01T15:47:41.358Z,17.21
2017-10-01T15:49:03.975Z,17.11
2017-10-01T15:50:26.143Z,17.21
2017-10-01T15:51:47.983Z,17.11
2017-10-01T15:53:10.809Z,16.97
2017-10-01T15:54:33.303Z,17.01
2017-10-01T15:55:55.895Z,17.06
2017-10-01T15:57:18.379Z,16.96
2017-10-01T15:58:40.543Z,16.93
2017-10-01T16:00:02.037Z,16.89
2017-10-01T16:01:24.235Z,16.86
2017-10-01T16:02:46.418Z,16.93
2017-10-01T16:04:09.253Z,16.85
2017-10-01T16:05:31.906Z,16.85
2017-10-01T16:06:53.473Z,16.82
2017-10-01T16:08:15.644Z,16.75
2017-10-01T16:09:38.563Z,16.71
2017-10-01T16:11:00.813Z,16.63
2017-10-01T16:12:23.023Z,16.52
2017-10-01T16:13:45.202Z,16.56
2017-10-01T16:15:07.684Z,16.43
2017-10-01T16:16:30.160Z,16.46
2017-10-01T16:17:52.347Z,16.39
2017-10-01T16:19:14.543Z,16.25
2017-10-01T16:20:37.114Z,16.17
2017-10-01T16:21:59.293Z,16.21
2017-10-01T16:23:21.483Z,16.09
2017-10-01T16:24:43.623Z,16.04
2017-10-01T16:26:05.822Z,16.04
2017-10-01T16:27:28.168Z,16
2017-10-01T16:28:50.361Z,15.89
2017-10-01T16:30:12.203Z,15.82
2017-10-01T16:31:34.733Z,15.75
2017-10-01T16:32:56.906Z,15.68
2017-10-01T16:34:18.841Z,15.69
2017-10-01T16:35:40.337Z,15.56
2017-10-01T16:37:02.560Z,15.53
2017-10-01T16:38:24.754Z,15.5
2017-10-01T16:39:46.979Z,15.47
2017-10-01T16:41:09.164Z,15.44
2017-10-01T16:42:31.443Z,15.36
2017-10-01T16:43:53.608Z,15.31
2017-10-01T16:45:15.793Z,15.16
2017-10-01T16:46:38.298Z,15.25
2017-10-01T16:48:00.909Z,15.19
2017-10-01T16:49:23.407Z,15.16
2017-10-01T16:50:46.055Z,15.09
2017-10-01T16:52:08.235Z,14.96
2017-10-01T16:53:30.433Z,15.02
2017-10-01T16:54:52.923Z,14.96
2017-10-01T16:56:15.471Z,14.96
2017-10-01T16:57:38.114Z,14.94
2017-10-01T16:59:00.615Z,14.96
2017-10-01T17:00:23.105Z,14.94
2017-10-01T17:01:45.583Z,14.83
2017-10-01T17:03:08.104Z,14.78
2017-10-01T17:04:29.942Z,14.75
2017-10-01T17:05:52.472Z,14.68
2017-10-01T17:07:14.688Z,14.68
2017-10-01T17:08:36.896Z,14.68
2017-10-01T17:09:59.764Z,14.62
2017-10-01T17:11:22.283Z,14.65
2017-10-01T17:12:44.762Z,14.54
2017-10-01T17:14:07.253Z,14.39
2017-10-01T17:15:29.391Z,14.33
2017-10-01T17:16:51.576Z,14.36
2017-10-01T17:18:14.043Z,14.29
2017-10-01T17:19:35.951Z,14.28
2017-10-01T17:20:58.432Z,14.25
2017-10-01T17:22:20.983Z,14.25
2017-10-01T17:23:42.904Z,14.25
2017-10-01T17:25:04.765Z,14.29
2017-10-01T17:26:26.954Z,14.22
2017-10-01T17:27:49.420Z,14.24
2017-10-01T17:29:10.959Z,14.27
2017-10-01T17:30:33.124Z,14.22
2017-10-01T17:31:55.966Z,14.22
2017-10-01T17:33:18.161Z,14.14
2017-10-01T17:34:40.339Z,14.17
2017-10-01T17:36:02.317Z,14.15
2017-10-01T17:37:24.546Z,14.03
2017-10-01T17:38:47.012Z,14.1
2017-10-01T17:40:09.164Z,13.99
2017-10-01T17:41:31.341Z,13.95
2017-10-01T17:42:54.261Z,14.06
2017-10-01T17:44:16.422Z,13.95
2017-10-01T17:45:38.914Z,13.97
2017-10-01T17:47:01.436Z,13.95